Terminal Aerodrome Forecast
Issued by NWS

Home | Current Version | Previous Version | Text Only | Print | Product List | Glossary On
Versions: 1 2 3 4 5 6 7 8 9 10 11 12 13 14 15 16 17 18
511
FTUS43 KICT 261122
TAFCNU
TAF
KCNU 261122Z 2612/2712 15012KT P6SM BKN020
     FM261700 17016G23KT P6SM OVC025
     FM270000 16017G24KT P6SM VCTS BKN030CB=

USA.gov is the U.S. government's official web portal to all federal, state and local government web resources and services.